Time,TemperatureF,DewpointF,PressureIn,WindDirection,WindDirectionDegrees,WindSpeedMPH,WindSpeedGustMPH,Humidity,HourlyPrecipIn,Conditions,Clouds,dailyrainin,SoftwareType,DateUTC
2013-08-14 00:01:00,77.0,72.1,30.06,SE,135,2.0,-999.0,85,-99.99,,,-99.99,meteohub,2013-08-14 04:01:00,
2013-08-14 00:02:00,77.0,72.1,30.06,SE,135,2.0,-999.0,85,-99.99,,,-99.99,meteohub,2013-08-14 04:02:00,
2013-08-14 00:07:00,77.0,72.1,30.06,SE,135,1.0,-999.0,85,-99.99,,,-99.99,meteohub,2013-08-14 04:07:00,
2013-08-14 00:10:00,77.0,72.1,30.06,SE,135,1.0,-999.0,85,-99.99,,,-99.99,meteohub,2013-08-14 04:10:00,
2013-08-14 00:15:00,77.0,72.5,30.06,NE,45,3.0,-999.0,86,-99.99,,,-99.99,meteohub,2013-08-14 04:15:00,
2013-08-14 00:20:00,77.0,73.8,30.04,NE,45,1.0,-999.0,90,-99.99,,,-99.99,meteohub,2013-08-14 04:20:00,
2013-08-14 00:25:00,77.0,73.2,30.04,NE,45,0.0,-999.0,88,-99.99,,,-99.99,meteohub,2013-08-14 04:25:00,
2013-08-14 00:30:00,77.0,73.2,30.06,NE,45,0.0,-999.0,88,-99.99,,,-99.99,meteohub,2013-08-14 04:30:00,
2013-08-14 00:35:00,77.0,73.8,30.04,NE,45,0.0,-999.0,90,-99.99,,,-99.99,meteohub,2013-08-14 04:35:00,
2013-08-14 00:40:00,77.0,74.5,30.04,NE,45,2.0,-999.0,92,-99.99,,,-99.99,meteohub,2013-08-14 04:40:00,
2013-08-14 00:45:00,77.0,73.6,30.04,NE,45,0.0,-999.0,89,-99.99,,,-99.99,meteohub,2013-08-14 04:45:00,
2013-08-14 00:50:00,77.0,73.8,30.04,NE,45,0.0,-999.0,90,-99.99,,,-99.99,meteohub,2013-08-14 04:50:00,
2013-08-14 00:55:00,77.0,73.8,30.04,NE,45,3.0,-999.0,90,-99.99,,,-99.99,meteohub,2013-08-14 04:55:00,
2013-08-14 01:00:00,77.0,73.8,30.04,NE,45,2.0,-999.0,90,-99.99,,,-99.99,meteohub,2013-08-14 05:00:00,
2013-08-14 01:06:00,77.0,74.1,30.04,NE,45,2.0,-999.0,91,-99.99,,,-99.99,meteohub,2013-08-14 05:06:00,
2013-08-14 01:11:00,77.0,74.1,30.04,NE,45,3.0,-999.0,91,-99.99,,,-99.99,meteohub,2013-08-14 05:11:00,
2013-08-14 01:16:00,77.0,75.4,30.04,NE,45,4.0,-999.0,95,-99.99,,,-99.99,meteohub,2013-08-14 05:16:00,
2013-08-14 01:21:00,77.0,74.5,30.04,NE,45,3.0,-999.0,92,-99.99,,,-99.99,meteohub,2013-08-14 05:21:00,
2013-08-14 01:26:00,77.0,74.5,30.04,NE,45,6.0,-999.0,92,-99.99,,,-99.99,meteohub,2013-08-14 05:26:00,
2013-08-14 01:31:00,77.0,74.5,30.04,NE,45,5.0,-999.0,92,-99.99,,,-99.99,meteohub,2013-08-14 05:31:00,
2013-08-14 01:36:00,75.9,74.3,30.04,NE,45,4.0,-999.0,95,-99.99,,,-99.99,meteohub,2013-08-14 05:36:00,
2013-08-14 01:41:00,77.0,74.5,30.04,NE,45,5.0,-999.0,92,-99.99,,,-99.99,meteohub,2013-08-14 05:41:00,
2013-08-14 01:46:00,77.0,74.5,30.04,NE,45,3.0,-999.0,92,-99.99,,,-99.99,meteohub,2013-08-14 05:46:00,
2013-08-14 01:51:00,77.0,74.5,30.04,NE,45,3.0,-999.0,92,-99.99,,,-99.99,meteohub,2013-08-14 05:51:00,
2013-08-14 01:57:00,77.0,74.8,30.04,NE,45,4.0,-999.0,93,-99.99,,,-99.99,meteohub,2013-08-14 05:57:00,
2013-08-14 02:02:00,77.0,74.5,30.03,NE,45,5.0,-999.0,92,-99.99,,,-99.99,meteohub,2013-08-14 06:02:00,
2013-08-14 02:07:00,77.0,74.8,30.03,NE,45,4.0,-999.0,93,-99.99,,,-99.99,meteohub,2013-08-14 06:07:00,
2013-08-14 02:12:00,77.0,76.1,30.03,NE,45,2.0,-999.0,97,-99.99,,,-99.99,meteohub,2013-08-14 06:12:00,
2013-08-14 02:17:00,77.0,74.8,30.03,NE,45,2.0,-999.0,93,-99.99,,,-99.99,meteohub,2013-08-14 06:17:00,
2013-08-14 02:22:00,77.0,74.5,30.03,NE,45,3.0,-999.0,92,-99.99,,,-99.99,meteohub,2013-08-14 06:22:00,
2013-08-14 02:27:00,77.0,74.8,30.01,NE,45,3.0,-999.0,93,-99.99,,,-99.99,meteohub,2013-08-14 06:27:00,
2013-08-14 02:32:00,77.0,74.8,30.01,SE,135,4.0,-999.0,93,-99.99,,,-99.99,meteohub,2013-08-14 06:32:00,
2013-08-14 02:37:00,75.9,73.8,30.01,NE,45,4.0,-999.0,93,-99.99,,,-99.99,meteohub,2013-08-14 06:37:00,
2013-08-14 02:42:00,75.9,73.8,30.01,NE,45,3.0,-999.0,93,-99.99,,,-99.99,meteohub,2013-08-14 06:42:00,
2013-08-14 02:47:00,75.9,75.0,30.01,NE,45,5.0,-999.0,97,-99.99,,,-99.99,meteohub,2013-08-14 06:47:00,
2013-08-14 02:52:00,77.0,74.8,30.01,NE,45,3.0,-999.0,93,-99.99,,,-99.99,meteohub,2013-08-14 06:52:00,
2013-08-14 02:57:00,77.0,74.8,30.01,NE,45,2.0,-999.0,93,-99.99,,,-99.99,meteohub,2013-08-14 06:57:00,
2013-08-14 03:02:00,75.9,73.8,30.01,NE,45,2.0,-999.0,93,-99.99,,,-99.99,meteohub,2013-08-14 07:02:00,
2013-08-14 03:07:00,75.9,73.8,30.01,NE,45,0.0,-999.0,93,-99.99,,,-99.99,meteohub,2013-08-14 07:07:00,
2013-08-14 03:12:00,75.9,73.8,30.01,NE,45,0.0,-999.0,93,-99.99,,,-99.99,meteohub,2013-08-14 07:12:00,
2013-08-14 03:17:00,75.9,73.8,30.01,NE,45,0.0,-999.0,93,-99.99,,,-99.99,meteohub,2013-08-14 07:17:00,
2013-08-14 03:22:00,75.9,75.4,30.01,NE,45,3.0,-999.0,98,-99.99,,,-99.99,meteohub,2013-08-14 07:22:00,
2013-08-14 03:27:00,75.9,74.1,30.01,NE,45,0.0,-999.0,94,-99.99,,,-99.99,meteohub,2013-08-14 07:27:00,
2013-08-14 03:32:00,75.9,74.1,30.01,NE,45,2.0,-999.0,94,-99.99,,,-99.99,meteohub,2013-08-14 07:32:00,
2013-08-14 03:37:00,75.9,74.1,30.01,NE,45,0.0,-999.0,94,-99.99,,,-99.99,meteohub,2013-08-14 07:37:00,
2013-08-14 03:42:00,75.9,74.1,30.01,NE,45,1.0,-999.0,94,-99.99,,,-99.99,meteohub,2013-08-14 07:42:00,
2013-08-14 03:47:00,75.9,74.1,30.01,NE,45,2.0,-999.0,94,-99.99,,,-99.99,meteohub,2013-08-14 07:47:00,
2013-08-14 03:52:00,75.9,74.1,30.01,NE,45,2.0,-999.0,94,-99.99,,,-99.99,meteohub,2013-08-14 07:52:00,
2013-08-14 03:57:00,75.9,75.6,30.01,NE,45,0.0,-999.0,99,-99.99,,,-99.99,meteohub,2013-08-14 07:57:00,
2013-08-14 04:02:00,75.9,74.1,30.01,NNE,22,3.0,-999.0,94,-99.99,,,-99.99,meteohub,2013-08-14 08:02:00,
2013-08-14 04:07:00,75.9,74.1,30.00,NE,45,1.0,-999.0,94,-99.99,,,-99.99,meteohub,2013-08-14 08:07:00,
2013-08-14 04:12:00,75.9,74.1,30.00,NE,45,1.0,-999.0,94,-99.99,,,-99.99,meteohub,2013-08-14 08:12:00,
2013-08-14 04:17:00,75.9,74.1,30.00,NE,45,4.0,-999.0,94,-99.99,,,-99.99,meteohub,2013-08-14 08:17:00,
2013-08-14 04:22:00,75.9,74.1,30.00,NE,45,0.0,-999.0,94,-99.99,,,-99.99,meteohub,2013-08-14 08:22:00,
2013-08-14 04:27:00,75.9,74.1,30.00,NE,45,0.0,-999.0,94,-99.99,,,-99.99,meteohub,2013-08-14 08:27:00,
2013-08-14 04:32:00,75.9,75.6,30.00,NE,45,4.0,-999.0,99,-99.99,,,-99.99,meteohub,2013-08-14 08:32:00,
2013-08-14 04:37:00,75.9,74.1,30.00,NE,45,2.0,-999.0,94,-99.99,,,-99.99,meteohub,2013-08-14 08:37:00,
2013-08-14 04:42:00,77.0,75.2,30.00,NE,45,3.0,-999.0,94,-99.99,,,-99.99,meteohub,2013-08-14 08:42:00,
2013-08-14 04:47:00,77.0,75.2,30.00,NE,45,5.0,-999.0,94,-99.99,,,-99.99,meteohub,2013-08-14 08:47:00,
2013-08-14 04:52:00,77.0,75.2,30.00,NE,45,2.0,-999.0,94,-99.99,,,-99.99,meteohub,2013-08-14 08:52:00,
2013-08-14 04:57:00,77.0,75.2,30.00,NE,45,1.0,-999.0,94,-99.99,,,-99.99,meteohub,2013-08-14 08:57:00,
2013-08-14 05:02:00,77.0,75.2,30.00,NE,45,2.0,-999.0,94,-99.99,,,-99.99,meteohub,2013-08-14 09:02:00,
2013-08-14 05:07:00,75.9,75.6,30.00,NE,45,1.0,-999.0,99,-99.99,,,-99.99,meteohub,2013-08-14 09:07:00,
2013-08-14 05:12:00,77.0,75.2,30.00,NE,45,2.0,-999.0,94,-99.99,,,-99.99,meteohub,2013-08-14 09:12:00,
2013-08-14 05:17:00,77.0,75.4,30.00,NE,45,3.0,-999.0,95,-99.99,,,-99.99,meteohub,2013-08-14 09:17:00,
2013-08-14 05:22:00,77.0,75.4,30.00,NNE,22,2.0,-999.0,95,-99.99,,,-99.99,meteohub,2013-08-14 09:22:00,
2013-08-14 05:27:00,77.0,75.4,30.00,NE,45,1.0,-999.0,95,-99.99,,,-99.99,meteohub,2013-08-14 09:27:00,
2013-08-14 05:32:00,77.0,75.4,30.00,NE,45,2.0,-999.0,95,-99.99,,,-99.99,meteohub,2013-08-14 09:32:00,
2013-08-14 05:37:00,77.0,75.4,30.00,NE,45,0.0,-999.0,95,-99.99,,,-99.99,meteohub,2013-08-14 09:37:00,
2013-08-14 05:42:00,77.0,75.4,30.00,NE,45,2.0,-999.0,95,-99.99,,,-99.99,meteohub,2013-08-14 09:42:00,
2013-08-14 05:47:00,77.0,75.4,30.00,North,0,0.0,-999.0,95,-99.99,,,-99.99,meteohub,2013-08-14 09:47:00,
2013-08-14 05:52:00,77.0,75.4,30.00,North,0,0.0,-999.0,95,-99.99,,,-99.99,meteohub,2013-08-14 09:52:00,
2013-08-14 05:57:00,77.0,75.4,30.00,NE,45,1.0,-999.0,95,-99.99,,,-99.99,meteohub,2013-08-14 09:57:00,
2013-08-14 06:03:00,75.9,75.9,30.00,NE,45,3.0,-999.0,100,-99.99,,,-99.99,meteohub,2013-08-14 10:03:00,
2013-08-14 06:08:00,77.0,75.4,30.00,NE,45,6.0,-999.0,95,-99.99,,,-99.99,meteohub,2013-08-14 10:08:00,
2013-08-14 06:13:00,77.0,75.4,30.00,NE,45,4.0,-999.0,95,-99.99,,,-99.99,meteohub,2013-08-14 10:13:00,
2013-08-14 06:18:00,77.0,75.7,30.00,North,0,0.0,-999.0,96,-99.99,,,-99.99,meteohub,2013-08-14 10:18:00,
2013-08-14 06:23:00,77.0,77.0,30.00,NE,45,0.0,-999.0,100,-99.99,,,-99.99,meteohub,2013-08-14 10:23:00,
2013-08-14 06:28:00,77.0,75.7,30.00,NE,45,1.0,-999.0,96,-99.99,,,-99.99,meteohub,2013-08-14 10:28:00,
2013-08-14 06:33:00,77.0,75.7,30.01,NE,45,2.0,-999.0,96,-99.99,,,-99.99,meteohub,2013-08-14 10:33:00,
2013-08-14 06:38:00,77.0,75.7,30.01,NE,45,3.0,-999.0,96,-99.99,,,-99.99,meteohub,2013-08-14 10:38:00,
2013-08-14 06:43:00,77.0,75.4,30.01,NE,45,2.0,-999.0,95,-99.99,,,-99.99,meteohub,2013-08-14 10:43:00,
2013-08-14 06:49:00,77.0,75.7,30.01,NE,45,4.0,-999.0,96,-99.99,,,-99.99,meteohub,2013-08-14 10:49:00,
2013-08-14 06:54:00,77.0,75.7,30.01,NE,45,2.0,-999.0,96,-99.99,,,-99.99,meteohub,2013-08-14 10:54:00,
2013-08-14 06:59:00,77.0,77.0,30.01,NE,45,0.0,-999.0,100,-99.99,,,-99.99,meteohub,2013-08-14 10:59:00,
2013-08-14 07:04:00,77.0,75.7,30.01,NE,45,2.0,-999.0,96,-99.99,,,-99.99,meteohub,2013-08-14 11:04:00,
2013-08-14 07:09:00,77.0,75.7,30.01,NE,45,2.0,-999.0,96,-99.99,,,-99.99,meteohub,2013-08-14 11:09:00,
2013-08-14 07:14:00,77.0,75.7,30.01,NE,45,2.0,-999.0,96,-99.99,,,-99.99,meteohub,2013-08-14 11:14:00,
2013-08-14 07:19:00,77.0,77.0,30.01,NE,45,1.0,-999.0,100,-99.99,,,-99.99,meteohub,2013-08-14 11:19:00,
2013-08-14 07:24:00,77.0,75.7,30.01,NE,45,2.0,-999.0,96,-99.99,,,-99.99,meteohub,2013-08-14 11:24:00,
2013-08-14 07:29:00,77.0,76.1,30.01,NE,45,1.0,-999.0,97,-99.99,,,-99.99,meteohub,2013-08-14 11:29:00,
2013-08-14 07:34:00,78.1,76.8,30.01,NE,45,3.0,-999.0,96,-99.99,,,-99.99,meteohub,2013-08-14 11:34:00,
2013-08-14 07:40:00,78.1,76.5,30.01,NE,45,4.0,-999.0,95,-99.99,,,-99.99,meteohub,2013-08-14 11:40:00,
2013-08-14 07:45:00,78.1,76.3,30.01,NE,45,2.0,-999.0,94,-99.99,,,-99.99,meteohub,2013-08-14 11:45:00,
2013-08-14 07:50:00,79.0,76.8,30.01,NE,45,4.0,-999.0,93,-99.99,,,-99.99,meteohub,2013-08-14 11:50:00,
2013-08-14 07:55:00,78.1,77.2,30.01,NE,45,5.0,-999.0,97,-99.99,,,-99.99,meteohub,2013-08-14 11:55:00,
2013-08-14 08:00:00,79.0,75.4,30.01,NE,45,6.0,-999.0,89,-99.99,,,-99.99,meteohub,2013-08-14 12:00:00,
2013-08-14 08:05:00,80.1,75.9,30.01,NE,45,6.0,-999.0,87,-99.99,,,-99.99,meteohub,2013-08-14 12:05:00,
2013-08-14 08:10:00,80.1,75.9,30.01,SE,135,4.0,-999.0,87,-99.99,,,-99.99,meteohub,2013-08-14 12:10:00,
2013-08-14 08:15:00,80.1,77.5,30.01,NE,45,6.0,-999.0,92,-99.99,,,-99.99,meteohub,2013-08-14 12:15:00,
2013-08-14 08:20:00,80.1,75.2,30.01,NE,45,6.0,-999.0,85,-99.99,,,-99.99,meteohub,2013-08-14 12:20:00,
2013-08-14 08:25:00,80.1,74.5,30.01,NE,45,3.0,-999.0,83,-99.99,,,-99.99,meteohub,2013-08-14 12:25:00,
2013-08-14 08:31:00,81.0,75.7,30.01,NE,45,4.0,-999.0,84,-99.99,,,-99.99,meteohub,2013-08-14 12:31:00,
2013-08-14 08:36:00,81.0,75.0,30.01,NE,45,6.0,-999.0,82,-99.99,,,-99.99,meteohub,2013-08-14 12:36:00,
2013-08-14 08:41:00,81.0,75.0,30.01,NE,45,5.0,-999.0,82,-99.99,,,-99.99,meteohub,2013-08-14 12:41:00,
2013-08-14 08:46:00,81.0,75.4,30.01,SE,135,6.0,-999.0,83,-99.99,,,-99.99,meteohub,2013-08-14 12:46:00,
2013-08-14 08:51:00,81.0,77.0,30.01,SE,135,6.0,-999.0,88,-99.99,,,-99.99,meteohub,2013-08-14 12:51:00,
2013-08-14 08:56:00,81.0,75.0,30.01,SE,135,7.0,-999.0,82,-99.99,,,-99.99,meteohub,2013-08-14 12:56:00,
2013-08-14 09:02:00,81.0,75.4,30.01,SE,135,12.0,-999.0,83,-99.99,,,-99.99,meteohub,2013-08-14 13:02:00,
2013-08-14 09:07:00,82.0,76.6,30.01,SE,135,7.0,-999.0,84,-99.99,,,-99.99,meteohub,2013-08-14 13:07:00,
2013-08-14 09:12:00,81.0,76.6,30.01,SE,135,10.0,-999.0,87,-99.99,,,-99.99,meteohub,2013-08-14 13:12:00,
2013-08-14 09:17:00,82.0,75.6,30.01,SE,135,8.0,-999.0,81,-99.99,,,-99.99,meteohub,2013-08-14 13:17:00,
2013-08-14 09:22:00,82.0,75.6,30.01,SE,135,9.0,-999.0,81,-99.99,,,-99.99,meteohub,2013-08-14 13:22:00,
2013-08-14 09:27:00,82.0,75.6,30.01,SE,135,4.0,-999.0,81,-99.99,,,-99.99,meteohub,2013-08-14 13:27:00,
2013-08-14 09:32:00,82.0,76.3,30.01,SE,135,5.0,-999.0,83,-99.99,,,-99.99,meteohub,2013-08-14 13:32:00,
2013-08-14 09:37:00,82.0,74.8,30.01,SE,135,6.0,-999.0,79,-99.99,,,-99.99,meteohub,2013-08-14 13:37:00,
2013-08-14 09:43:00,82.9,75.0,30.01,SE,135,7.0,-999.0,77,-99.99,,,-99.99,meteohub,2013-08-14 13:43:00,
2013-08-14 09:48:00,82.9,75.7,30.01,SE,135,8.0,-999.0,79,-99.99,,,-99.99,meteohub,2013-08-14 13:48:00,
2013-08-14 09:53:00,82.0,73.8,30.01,SE,135,3.0,-999.0,76,-99.99,,,-99.99,meteohub,2013-08-14 13:53:00,
2013-08-14 09:58:00,82.9,75.7,30.03,SE,135,5.0,-999.0,79,-99.99,,,-99.99,meteohub,2013-08-14 13:58:00,
2013-08-14 10:03:00,82.9,73.4,30.03,SE,135,5.0,-999.0,73,-99.99,,,-99.99,meteohub,2013-08-14 14:03:00,
2013-08-14 10:08:00,82.9,74.1,30.01,SE,135,10.0,-999.0,75,-99.99,,,-99.99,meteohub,2013-08-14 14:08:00,
2013-08-14 10:13:00,82.9,73.8,30.01,SE,135,7.0,-999.0,74,-99.99,,,-99.99,meteohub,2013-08-14 14:13:00,
2013-08-14 10:18:00,82.9,73.8,30.03,SE,135,9.0,-999.0,74,-99.99,,,-99.99,meteohub,2013-08-14 14:18:00,
2013-08-14 10:23:00,82.9,73.0,30.01,SE,135,9.0,-999.0,72,-99.99,,,-99.99,meteohub,2013-08-14 14:23:00,
2013-08-14 10:28:00,82.9,74.1,30.01,SE,135,6.0,-999.0,75,-99.99,,,-99.99,meteohub,2013-08-14 14:28:00,
2013-08-14 10:33:00,82.9,73.0,30.01,SE,135,7.0,-999.0,72,-99.99,,,-99.99,meteohub,2013-08-14 14:33:00,
2013-08-14 10:38:00,82.9,71.8,30.01,SE,135,6.0,-999.0,69,-99.99,,,-99.99,meteohub,2013-08-14 14:38:00,
2013-08-14 10:44:00,82.9,70.3,30.03,SE,135,5.0,-999.0,66,-99.99,,,-99.99,meteohub,2013-08-14 14:44:00,
2013-08-14 10:49:00,84.0,72.7,30.03,SE,135,3.0,-999.0,69,-99.99,,,-99.99,meteohub,2013-08-14 14:49:00,
2013-08-14 10:54:00,84.0,72.0,30.01,SE,135,9.0,-999.0,67,-99.99,,,-99.99,meteohub,2013-08-14 14:54:00,
2013-08-14 10:59:00,82.9,70.3,30.01,SE,135,8.0,-999.0,66,-99.99,,,-99.99,meteohub,2013-08-14 14:59:00,
2013-08-14 11:04:00,82.9,71.8,30.01,SE,135,9.0,-999.0,69,-99.99,,,-99.99,meteohub,2013-08-14 15:04:00,
2013-08-14 11:09:00,82.9,71.2,30.01,SE,135,9.0,-999.0,68,-99.99,,,-99.99,meteohub,2013-08-14 15:09:00,
2013-08-14 11:14:00,82.9,69.4,30.01,SE,135,9.0,-999.0,64,-99.99,,,-99.99,meteohub,2013-08-14 15:14:00,
2013-08-14 11:19:00,82.9,71.2,30.03,SE,135,9.0,-999.0,68,-99.99,,,-99.99,meteohub,2013-08-14 15:19:00,
2013-08-14 11:24:00,84.0,73.9,30.03,SE,135,10.0,-999.0,72,-99.99,,,-99.99,meteohub,2013-08-14 15:24:00,
2013-08-14 11:29:00,84.0,73.2,30.03,SE,135,7.0,-999.0,70,-99.99,,,-99.99,meteohub,2013-08-14 15:29:00,
2013-08-14 11:34:00,84.0,73.2,30.03,SE,135,9.0,-999.0,70,-99.99,,,-99.99,meteohub,2013-08-14 15:34:00,
2013-08-14 11:39:00,84.0,71.4,30.03,SE,135,9.0,-999.0,66,-99.99,,,-99.99,meteohub,2013-08-14 15:39:00,
2013-08-14 11:45:00,84.0,73.2,30.03,SE,135,10.0,-999.0,70,-99.99,,,-99.99,meteohub,2013-08-14 15:45:00,
2013-08-14 11:50:00,84.0,70.5,30.04,SE,135,10.0,-999.0,64,-99.99,,,-99.99,meteohub,2013-08-14 15:50:00,
2013-08-14 11:55:00,84.0,72.0,30.04,SE,135,12.0,-999.0,67,-99.99,,,-99.99,meteohub,2013-08-14 15:55:00,
2013-08-14 12:00:00,84.0,73.2,30.04,SE,135,12.0,-999.0,70,-99.99,,,-99.99,meteohub,2013-08-14 16:00:00,
2013-08-14 12:05:00,84.0,72.3,30.04,SE,135,9.0,-999.0,68,-99.99,,,-99.99,meteohub,2013-08-14 16:05:00,
2013-08-14 12:10:00,82.9,70.9,30.04,SE,135,11.0,-999.0,67,-99.99,,,-99.99,meteohub,2013-08-14 16:10:00,
2013-08-14 12:15:00,84.0,71.4,30.04,SE,135,12.0,-999.0,66,-99.99,,,-99.99,meteohub,2013-08-14 16:15:00,
2013-08-14 12:21:00,84.0,73.2,30.04,SE,135,10.0,-999.0,70,-99.99,,,-99.99,meteohub,2013-08-14 16:21:00,
2013-08-14 12:26:00,84.0,73.9,30.04,SE,135,10.0,-999.0,72,-99.99,,,-99.99,meteohub,2013-08-14 16:26:00,
2013-08-14 12:31:00,84.0,74.5,30.04,SE,135,7.0,-999.0,73,-99.99,,,-99.99,meteohub,2013-08-14 16:31:00,
2013-08-14 12:36:00,84.0,72.0,30.04,SE,135,8.0,-999.0,67,-99.99,,,-99.99,meteohub,2013-08-14 16:36:00,
2013-08-14 12:41:00,84.0,73.9,30.04,SE,135,12.0,-999.0,72,-99.99,,,-99.99,meteohub,2013-08-14 16:41:00,
2013-08-14 12:46:00,84.0,72.3,30.04,SE,135,8.0,-999.0,68,-99.99,,,-99.99,meteohub,2013-08-14 16:46:00,
2013-08-14 12:51:00,84.0,72.7,30.04,SE,135,8.0,-999.0,69,-99.99,,,-99.99,meteohub,2013-08-14 16:51:00,
2013-08-14 12:56:00,84.0,72.3,30.04,SE,135,12.0,-999.0,68,-99.99,,,-99.99,meteohub,2013-08-14 16:56:00,
2013-08-14 13:02:00,84.0,72.7,30.04,SE,135,11.0,-999.0,69,-99.99,,,-99.99,meteohub,2013-08-14 17:02:00,
2013-08-14 13:07:00,84.9,72.7,30.04,SSE,157,6.0,-999.0,67,-99.99,,,-99.99,meteohub,2013-08-14 17:07:00,
2013-08-14 13:12:00,84.9,73.2,30.03,South,180,9.0,-999.0,68,-99.99,,,-99.99,meteohub,2013-08-14 17:12:00,
2013-08-14 13:17:00,84.9,74.1,30.03,South,180,7.0,-999.0,70,-99.99,,,-99.99,meteohub,2013-08-14 17:17:00,
2013-08-14 13:23:00,84.9,73.2,30.03,South,180,6.0,-999.0,68,-99.99,,,-99.99,meteohub,2013-08-14 17:23:00,
2013-08-14 13:28:00,84.9,73.2,30.01,SSE,157,6.0,-999.0,68,-99.99,,,-99.99,meteohub,2013-08-14 17:28:00,
2013-08-14 13:33:00,84.9,72.7,30.01,SSE,157,9.0,-999.0,67,-99.99,,,-99.99,meteohub,2013-08-14 17:33:00,
2013-08-14 13:38:00,84.9,71.8,30.01,South,180,9.0,-999.0,65,-99.99,,,-99.99,meteohub,2013-08-14 17:38:00,
2013-08-14 13:43:00,84.9,73.2,30.01,South,180,4.0,-999.0,68,-99.99,,,-99.99,meteohub,2013-08-14 17:43:00,
2013-08-14 13:49:00,84.9,71.4,30.01,SSE,157,7.0,-999.0,64,-99.99,,,-99.99,meteohub,2013-08-14 17:49:00,
2013-08-14 13:54:00,86.0,73.8,30.01,SSW,202,11.0,-999.0,67,-99.99,,,-99.99,meteohub,2013-08-14 17:54:00,
2013-08-14 13:59:00,84.9,72.7,30.01,SW,225,6.0,-999.0,67,-99.99,,,-99.99,meteohub,2013-08-14 17:59:00,
2013-08-14 14:04:00,84.9,73.2,30.01,SSW,202,10.0,-999.0,68,-99.99,,,-99.99,meteohub,2013-08-14 18:04:00,
2013-08-14 14:10:00,84.9,73.2,30.01,SW,225,10.0,-999.0,68,-99.99,,,-99.99,meteohub,2013-08-14 18:10:00,
2013-08-14 14:15:00,84.9,73.2,30.01,SSW,202,10.0,-999.0,68,-99.99,,,-99.99,meteohub,2013-08-14 18:15:00,
2013-08-14 14:22:00,84.9,73.2,30.01,SW,225,8.0,-999.0,68,-99.99,,,-99.99,meteohub,2013-08-14 18:22:00,
2013-08-14 14:27:00,84.9,72.3,30.01,SSW,202,9.0,-999.0,66,-99.99,,,-99.99,meteohub,2013-08-14 18:27:00,
2013-08-14 14:32:00,84.9,71.8,30.01,SW,225,9.0,-999.0,65,-99.99,,,-99.99,meteohub,2013-08-14 18:32:00,
2013-08-14 14:38:00,86.0,72.9,30.01,South,180,6.0,-999.0,65,-99.99,,,-99.99,meteohub,2013-08-14 18:38:00,
2013-08-14 14:43:00,86.0,72.3,30.01,SSW,202,9.0,-999.0,64,-99.99,,,-99.99,meteohub,2013-08-14 18:43:00,
2013-08-14 14:48:00,86.0,73.2,30.01,South,180,7.0,-999.0,66,-99.99,,,-99.99,meteohub,2013-08-14 18:48:00,
2013-08-14 14:53:00,84.9,71.8,30.01,South,180,10.0,-999.0,65,-99.99,,,-99.99,meteohub,2013-08-14 18:53:00,
2013-08-14 14:58:00,84.9,72.7,30.00,SW,225,12.0,-999.0,67,-99.99,,,-99.99,meteohub,2013-08-14 18:58:00,
2013-08-14 15:03:00,84.9,73.6,30.00,SW,225,9.0,-999.0,69,-99.99,,,-99.99,meteohub,2013-08-14 19:03:00,
2013-08-14 15:12:00,84.9,74.5,30.00,SW,225,11.0,-999.0,71,-99.99,,,-99.99,meteohub,2013-08-14 19:12:00,
2013-08-14 15:17:00,84.9,74.1,29.99,SW,225,10.0,-999.0,70,-99.99,,,-99.99,meteohub,2013-08-14 19:17:00,
2013-08-14 15:22:00,84.9,74.1,29.99,South,180,10.0,-999.0,70,-99.99,,,-99.99,meteohub,2013-08-14 19:22:00,
2013-08-14 15:32:00,84.9,73.2,29.99,SSW,202,10.0,-999.0,68,-99.99,,,-99.99,meteohub,2013-08-14 19:32:00,
2013-08-14 15:38:00,84.9,74.1,29.99,SSW,202,10.0,-999.0,70,-99.99,,,-99.99,meteohub,2013-08-14 19:38:00,
2013-08-14 15:46:00,86.0,75.6,29.99,SW,225,9.0,-999.0,71,-99.99,,,-99.99,meteohub,2013-08-14 19:46:00,
2013-08-14 15:52:00,84.9,74.1,29.99,SSW,202,11.0,-999.0,70,-99.99,,,-99.99,meteohub,2013-08-14 19:52:00,
2013-08-14 15:57:00,84.9,74.5,29.99,SW,225,7.0,-999.0,71,-99.99,,,-99.99,meteohub,2013-08-14 19:57:00,
2013-08-14 16:02:00,84.9,74.1,29.99,South,180,13.0,-999.0,70,-99.99,,,-99.99,meteohub,2013-08-14 20:02:00,
2013-08-14 16:07:00,86.0,74.7,29.99,South,180,9.0,-999.0,69,-99.99,,,-99.99,meteohub,2013-08-14 20:07:00,
2013-08-14 16:13:00,86.0,74.7,29.98,South,180,5.0,-999.0,69,-99.99,,,-99.99,meteohub,2013-08-14 20:13:00,
2013-08-14 16:18:00,86.0,74.7,29.98,SW,225,6.0,-999.0,69,-99.99,,,-99.99,meteohub,2013-08-14 20:18:00,
2013-08-14 16:23:00,86.0,74.7,29.98,SW,225,7.0,-999.0,69,-99.99,,,-99.99,meteohub,2013-08-14 20:23:00,
2013-08-14 16:29:00,86.0,73.8,29.98,South,180,9.0,-999.0,67,-99.99,,,-99.99,meteohub,2013-08-14 20:29:00,
2013-08-14 16:34:00,86.0,74.7,29.96,South,180,10.0,-999.0,69,-99.99,,,-99.99,meteohub,2013-08-14 20:34:00,
2013-08-14 16:39:00,86.0,74.1,29.96,South,180,9.0,-999.0,68,-99.99,,,-99.99,meteohub,2013-08-14 20:39:00,
2013-08-14 16:44:00,86.0,74.1,29.96,SW,225,7.0,-999.0,68,-99.99,,,-99.99,meteohub,2013-08-14 20:44:00,
2013-08-14 16:50:00,86.0,74.1,29.96,SW,225,8.0,-999.0,68,-99.99,,,-99.99,meteohub,2013-08-14 20:50:00,
2013-08-14 16:55:00,86.0,74.1,29.96,SW,225,7.0,-999.0,68,-99.99,,,-99.99,meteohub,2013-08-14 20:55:00,
2013-08-14 17:01:00,84.9,74.1,29.96,SW,225,6.0,-999.0,70,-99.99,,,-99.99,meteohub,2013-08-14 21:01:00,
2013-08-14 17:06:00,86.0,74.7,29.96,South,180,8.0,-999.0,69,-99.99,,,-99.99,meteohub,2013-08-14 21:06:00,
2013-08-14 17:11:00,86.0,74.7,29.96,SSW,202,9.0,-999.0,69,-99.99,,,-99.99,meteohub,2013-08-14 21:11:00,
2013-08-14 17:16:00,86.0,74.1,29.96,SE,135,7.0,-999.0,68,-99.99,,,-99.99,meteohub,2013-08-14 21:16:00,
2013-08-14 17:21:00,84.9,74.1,29.96,SSW,202,9.0,-999.0,70,-99.99,,,-99.99,meteohub,2013-08-14 21:21:00,
2013-08-14 17:26:00,84.9,73.2,29.96,South,180,7.0,-999.0,68,-99.99,,,-99.99,meteohub,2013-08-14 21:26:00,
2013-08-14 17:31:00,84.9,74.1,29.96,SW,225,9.0,-999.0,70,-99.99,,,-99.99,meteohub,2013-08-14 21:31:00,
2013-08-14 17:36:00,84.9,73.2,29.96,South,180,11.0,-999.0,68,-99.99,,,-99.99,meteohub,2013-08-14 21:36:00,
2013-08-14 17:41:00,84.9,74.1,29.96,SSE,157,10.0,-999.0,70,-99.99,,,-99.99,meteohub,2013-08-14 21:41:00,
2013-08-14 17:47:00,84.9,72.7,29.96,South,180,11.0,-999.0,67,-99.99,,,-99.99,meteohub,2013-08-14 21:47:00,
2013-08-14 17:52:00,84.9,73.6,29.96,SSW,202,6.0,-999.0,69,-99.99,,,-99.99,meteohub,2013-08-14 21:52:00,
2013-08-14 17:57:00,84.9,74.1,29.96,SSW,202,5.0,-999.0,70,-99.99,,,-99.99,meteohub,2013-08-14 21:57:00,
2013-08-14 18:02:00,84.9,73.2,29.96,South,180,10.0,-999.0,68,-99.99,,,-99.99,meteohub,2013-08-14 22:02:00,
2013-08-14 18:07:00,84.9,73.2,29.96,SE,135,9.0,-999.0,68,-99.99,,,-99.99,meteohub,2013-08-14 22:07:00,
2013-08-14 18:12:00,84.9,73.6,29.96,SSW,202,10.0,-999.0,69,-99.99,,,-99.99,meteohub,2013-08-14 22:12:00,
2013-08-14 18:17:00,84.9,73.6,29.96,South,180,9.0,-999.0,69,-99.99,,,-99.99,meteohub,2013-08-14 22:17:00,
2013-08-14 18:22:00,84.9,74.1,29.96,SSW,202,9.0,-999.0,70,-99.99,,,-99.99,meteohub,2013-08-14 22:22:00,
2013-08-14 18:27:00,84.9,74.1,29.96,SW,225,11.0,-999.0,70,-99.99,,,-99.99,meteohub,2013-08-14 22:27:00,
2013-08-14 18:34:00,84.9,73.2,29.96,SW,225,9.0,-999.0,68,-99.99,,,-99.99,meteohub,2013-08-14 22:34:00,
2013-08-14 18:39:00,84.9,74.1,29.96,SSW,202,11.0,-999.0,70,-99.99,,,-99.99,meteohub,2013-08-14 22:39:00,
2013-08-14 18:44:00,84.9,74.1,29.96,SSW,202,8.0,-999.0,70,-99.99,,,-99.99,meteohub,2013-08-14 22:44:00,
2013-08-14 18:49:00,84.9,74.1,29.98,SSW,202,4.0,-999.0,70,-99.99,,,-99.99,meteohub,2013-08-14 22:49:00,
2013-08-14 18:54:00,84.9,74.1,29.98,SSE,157,8.0,-999.0,70,-99.99,,,-99.99,meteohub,2013-08-14 22:54:00,
2013-08-14 19:00:00,84.9,74.5,29.98,SSE,157,4.0,-999.0,71,-99.99,,,-99.99,meteohub,2013-08-14 23:00:00,
2013-08-14 19:06:00,84.0,73.2,29.98,South,180,7.0,-999.0,70,-99.99,,,-99.99,meteohub,2013-08-14 23:06:00,
2013-08-14 19:11:00,84.0,73.6,29.98,SW,225,8.0,-999.0,71,-99.99,,,-99.99,meteohub,2013-08-14 23:11:00,
2013-08-14 19:16:00,84.0,73.6,29.99,SSW,202,7.0,-999.0,71,-99.99,,,-99.99,meteohub,2013-08-14 23:16:00,
2013-08-14 19:21:00,84.0,73.9,29.99,South,180,1.0,-999.0,72,-99.99,,,-99.99,meteohub,2013-08-14 23:21:00,
2013-08-14 19:26:00,84.0,73.9,29.99,SSE,157,5.0,-999.0,72,-99.99,,,-99.99,meteohub,2013-08-14 23:26:00,
2013-08-14 19:31:00,84.0,73.9,29.99,SSE,157,3.0,-999.0,72,-99.99,,,-99.99,meteohub,2013-08-14 23:31:00,
2013-08-14 19:37:00,84.0,73.9,30.00,SW,225,4.0,-999.0,72,-99.99,,,-99.99,meteohub,2013-08-14 23:37:00,
2013-08-14 19:42:00,84.0,74.5,30.00,SW,225,4.0,-999.0,73,-99.99,,,-99.99,meteohub,2013-08-14 23:42:00,
2013-08-14 19:47:00,84.0,74.5,30.00,SW,225,5.0,-999.0,73,-99.99,,,-99.99,meteohub,2013-08-14 23:47:00,
2013-08-14 19:52:00,84.0,74.5,30.00,SW,225,5.0,-999.0,73,-99.99,,,-99.99,meteohub,2013-08-14 23:52:00,
2013-08-14 19:57:00,84.0,74.5,30.00,SW,225,7.0,-999.0,73,-99.99,,,-99.99,meteohub,2013-08-14 23:57:00,
2013-08-14 20:02:00,84.0,74.5,30.00,SW,225,6.0,-999.0,73,-99.99,,,-99.99,meteohub,2013-08-15 00:02:00,
2013-08-14 20:07:00,82.9,73.8,30.00,SW,225,5.0,-999.0,74,-99.99,,,-99.99,meteohub,2013-08-15 00:07:00,
2013-08-14 20:12:00,82.9,73.4,30.00,South,180,4.0,-999.0,73,-99.99,,,-99.99,meteohub,2013-08-15 00:12:00,
2013-08-14 20:17:00,82.9,74.1,30.00,SW,225,5.0,-999.0,75,-99.99,,,-99.99,meteohub,2013-08-15 00:17:00,
2013-08-14 20:22:00,82.9,73.8,30.00,South,180,4.0,-999.0,74,-99.99,,,-99.99,meteohub,2013-08-15 00:22:00,
2013-08-14 20:27:00,84.0,76.1,30.00,SSE,157,6.0,-999.0,77,-99.99,,,-99.99,meteohub,2013-08-15 00:27:00,
2013-08-14 20:32:00,84.0,75.2,30.00,South,180,8.0,-999.0,75,-99.99,,,-99.99,meteohub,2013-08-15 00:32:00,
2013-08-14 20:37:00,84.0,74.8,30.00,South,180,6.0,-999.0,74,-99.99,,,-99.99,meteohub,2013-08-15 00:37:00,
2013-08-14 20:42:00,84.0,74.5,30.01,South,180,6.0,-999.0,73,-99.99,,,-99.99,meteohub,2013-08-15 00:42:00,
2013-08-14 20:47:00,84.0,75.2,30.01,SSE,157,7.0,-999.0,75,-99.99,,,-99.99,meteohub,2013-08-15 00:47:00,
2013-08-14 20:52:00,84.0,75.2,30.01,South,180,7.0,-999.0,75,-99.99,,,-99.99,meteohub,2013-08-15 00:52:00,
2013-08-14 20:57:00,84.0,75.2,30.01,South,180,3.0,-999.0,75,-99.99,,,-99.99,meteohub,2013-08-15 00:57:00,
2013-08-14 21:02:00,84.0,74.8,30.01,SW,225,6.0,-999.0,74,-99.99,,,-99.99,meteohub,2013-08-15 01:02:00,
2013-08-14 21:07:00,84.0,75.2,30.01,South,180,3.0,-999.0,75,-99.99,,,-99.99,meteohub,2013-08-15 01:07:00,
2013-08-14 21:12:00,84.0,75.2,30.01,South,180,2.0,-999.0,75,-99.99,,,-99.99,meteohub,2013-08-15 01:12:00,
2013-08-14 21:17:00,84.0,75.2,30.01,SSE,157,4.0,-999.0,75,-99.99,,,-99.99,meteohub,2013-08-15 01:17:00,
2013-08-14 21:22:00,84.0,75.6,30.01,SE,135,3.0,-999.0,76,-99.99,,,-99.99,meteohub,2013-08-15 01:22:00,
2013-08-14 21:27:00,84.0,75.6,30.03,NW,315,0.0,-999.0,76,-99.99,,,-99.99,meteohub,2013-08-15 01:27:00,
2013-08-14 21:32:00,82.0,73.4,30.03,SE,135,5.0,-999.0,75,-99.99,,,-99.99,meteohub,2013-08-15 01:32:00,
2013-08-14 21:37:00,81.0,73.0,30.03,NE,45,7.0,-999.0,77,-99.99,,,-99.99,meteohub,2013-08-15 01:37:00,
2013-08-14 21:42:00,80.1,71.8,30.04,NE,45,5.0,-999.0,76,-99.99,,,-99.99,meteohub,2013-08-15 01:42:00,
2013-08-14 21:47:00,79.0,70.7,30.04,NNE,22,6.0,-999.0,76,-99.99,,,-99.99,meteohub,2013-08-15 01:47:00,
2013-08-14 21:52:00,79.0,74.1,30.04,SE,135,15.0,-999.0,85,-99.99,,,-99.99,meteohub,2013-08-15 01:52:00,
2013-08-14 21:57:00,78.1,72.5,30.06,NE,45,13.0,-999.0,83,-99.99,,,-99.99,meteohub,2013-08-15 01:57:00,
2013-08-14 22:02:00,75.0,72.0,30.04,NE,45,9.0,-999.0,90,-99.99,,,-99.99,meteohub,2013-08-15 02:02:00,
2013-08-14 22:07:00,73.9,71.4,30.04,NE,45,7.0,-999.0,92,-99.99,,,-99.99,meteohub,2013-08-15 02:07:00,
2013-08-14 22:12:00,73.9,71.4,30.06,NE,45,7.0,-999.0,92,-99.99,,,-99.99,meteohub,2013-08-15 02:12:00,
2013-08-14 22:17:00,73.9,71.8,30.06,NE,45,10.0,-999.0,93,-99.99,,,-99.99,meteohub,2013-08-15 02:17:00,
2013-08-14 22:22:00,73.9,72.7,30.06,SE,135,8.0,-999.0,96,-99.99,,,-99.99,meteohub,2013-08-15 02:22:00,
2013-08-14 22:28:00,73.9,70.9,30.06,NE,45,6.0,-999.0,90,-99.99,,,-99.99,meteohub,2013-08-15 02:28:00,
2013-08-14 22:33:00,75.0,71.6,30.06,NE,45,6.0,-999.0,89,-99.99,,,-99.99,meteohub,2013-08-15 02:33:00,
2013-08-14 22:38:00,75.0,71.6,30.06,North,0,2.0,-999.0,89,-99.99,,,-99.99,meteohub,2013-08-15 02:38:00,
2013-08-14 22:43:00,75.0,71.6,30.06,West,270,6.0,-999.0,89,-99.99,,,-99.99,meteohub,2013-08-15 02:43:00,
2013-08-14 22:48:00,75.0,72.0,30.06,WNW,292,5.0,-999.0,90,-99.99,,,-99.99,meteohub,2013-08-15 02:48:00,
2013-08-14 22:53:00,75.0,72.0,30.06,West,270,6.0,-999.0,90,-99.99,,,-99.99,meteohub,2013-08-15 02:53:00,
2013-08-14 22:58:00,75.9,72.9,30.06,SW,225,6.0,-999.0,90,-99.99,,,-99.99,meteohub,2013-08-15 02:58:00,
2013-08-14 23:03:00,75.9,72.9,30.06,SW,225,2.0,-999.0,90,-99.99,,,-99.99,meteohub,2013-08-15 03:03:00,
2013-08-14 23:08:00,75.9,72.9,30.04,SW,225,7.0,-999.0,90,-99.99,,,-99.99,meteohub,2013-08-15 03:08:00,
2013-08-14 23:13:00,75.9,73.0,30.04,SW,225,2.0,-999.0,91,-99.99,,,-99.99,meteohub,2013-08-15 03:13:00,
2013-08-14 23:18:00,75.9,74.7,30.04,South,180,5.0,-999.0,96,-99.99,,,-99.99,meteohub,2013-08-15 03:18:00,
2013-08-14 23:24:00,77.0,74.1,30.04,South,180,2.0,-999.0,91,-99.99,,,-99.99,meteohub,2013-08-15 03:24:00,
2013-08-14 23:29:00,77.0,74.1,30.04,South,180,0.0,-999.0,91,-99.99,,,-99.99,meteohub,2013-08-15 03:29:00,
2013-08-14 23:34:00,75.9,73.0,30.04,South,180,0.0,-999.0,91,-99.99,,,-99.99,meteohub,2013-08-15 03:34:00,
2013-08-14 23:39:00,77.0,74.5,30.04,NE,45,2.0,-999.0,92,-99.99,,,-99.99,meteohub,2013-08-15 03:39:00,
2013-08-14 23:44:00,77.0,74.5,30.04,NE,45,1.0,-999.0,92,-99.99,,,-99.99,meteohub,2013-08-15 03:44:00,
2013-08-14 23:49:00,77.0,74.5,30.04,NE,45,2.0,-999.0,92,-99.99,,,-99.99,meteohub,2013-08-15 03:49:00,
2013-08-14 23:54:00,77.0,74.5,30.04,NE,45,0.0,-999.0,92,-99.99,,,-99.99,meteohub,2013-08-15 03:54:00,
2013-08-14 23:59:00,77.0,74.5,30.04,NE,45,1.0,-999.0,92,-99.99,,,-99.99,meteohub,2013-08-15 03:59:00,